Time;durP1;ratioP1;P1;durP2;ratioP2;P2;SDS_P1;SDS_P2;PMS_P1;PMS_P2;Temp;Humidity;BMP_temperature;BMP_pressure;BME280_temperature;BME280_humidity;BME280_pressure;Samples;Min_cycle;Max_cycle;Signal;HPM_P1;HPM_P2
2024/04/18 00:01:22;;;;;;;2.55;2.28;;;3.00;99.90;;;;;;5435067;26;20006;-82
2024/04/18 00:03:47;;;;;;;3.00;1.95;;;3.00;99.90;;;;;;5447533;26;20075;-81
2024/04/18 00:06:13;;;;;;;4.07;2.05;;;3.00;99.90;;;;;;5441641;26;20492;-82
2024/04/18 00:08:39;;;;;;;3.60;2.08;;;3.00;99.90;;;;;;5448001;26;20010;-81
2024/04/18 00:11:05;;;;;;;3.95;2.40;;;2.90;99.90;;;;;;5433186;26;20013;-80
2024/04/18 00:13:30;;;;;;;2.13;1.92;;;2.80;99.90;;;;;;5471019;26;20002;-81
2024/04/18 00:15:56;;;;;;;2.50;2.30;;;2.80;99.90;;;;;;5470063;26;19994;-82
2024/04/18 00:18:22;;;;;;;3.10;1.92;;;2.80;99.90;;;;;;5471540;26;20025;-81
2024/04/18 00:20:47;;;;;;;4.45;2.40;;;2.70;99.90;;;;;;5440860;26;19995;-82
2024/04/18 00:23:13;;;;;;;2.22;2.03;;;2.70;99.90;;;;;;5471314;26;20092;-81
2024/04/18 00:25:38;;;;;;;3.97;2.50;;;2.70;99.90;;;;;;5444435;26;20018;-82
2024/04/18 00:28:04;;;;;;;2.72;2.38;;;2.70;99.90;;;;;;5481418;26;20013;-82
2024/04/18 00:30:29;;;;;;;2.38;2.17;;;2.70;99.90;;;;;;5478025;26;20272;-82
2024/04/18 00:32:55;;;;;;;2.92;2.33;;;2.70;99.90;;;;;;5458359;26;20084;-82
2024/04/18 00:35:20;;;;;;;4.45;2.30;;;2.60;99.90;;;;;;5480174;26;20004;-82
2024/04/18 00:37:46;;;;;;;2.80;2.25;;;2.60;99.90;;;;;;5478262;26;19994;-83
2024/04/18 00:40:11;;;;;;;4.72;2.55;;;2.60;99.90;;;;;;5480329;26;20103;-81
2024/04/18 00:42:40;;;;;;;3.38;2.30;;;2.50;99.90;;;;;;5455046;26;20058;-81
2024/04/18 00:45:06;;;;;;;3.00;2.15;;;2.50;99.90;;;;;;5481788;26;20075;-81
2024/04/18 00:47:32;;;;;;;3.03;2.33;;;2.40;99.90;;;;;;5450421;26;20017;-82
2024/04/18 00:49:58;;;;;;;4.25;2.90;;;2.50;99.90;;;;;;5471381;26;20002;-82
2024/04/18 00:52:24;;;;;;;3.58;2.75;;;2.40;99.90;;;;;;5448561;26;20002;-82
2024/04/18 00:54:50;;;;;;;2.80;2.13;;;2.40;99.90;;;;;;5476785;26;20030;-82
2024/04/18 00:57:17;;;;;;;4.07;2.80;;;2.30;99.90;;;;;;5449810;26;21025;-81
2024/04/18 00:59:44;;;;;;;4.93;2.60;;;2.30;99.90;;;;;;5451117;26;20836;-81
2024/04/18 01:02:10;;;;;;;4.13;2.88;;;2.30;99.90;;;;;;5476328;26;20078;-82
2024/04/18 01:04:38;;;;;;;3.72;2.80;;;2.30;99.90;;;;;;5449716;26;20009;-83
2024/04/18 01:07:04;;;;;;;3.65;2.63;;;2.30;99.90;;;;;;5476293;26;20002;-81
2024/04/18 01:09:29;;;;;;;3.03;2.63;;;2.20;99.90;;;;;;5469958;26;20002;-82
2024/04/18 01:11:55;;;;;;;4.50;2.30;;;2.20;99.90;;;;;;5476678;26;20002;-81
2024/04/18 01:14:21;;;;;;;3.38;2.95;;;2.10;99.90;;;;;;5450429;26;20679;-81
2024/04/18 01:16:46;;;;;;;2.30;2.10;;;2.10;99.90;;;;;;5446774;26;19990;-81
2024/04/18 01:19:18;;;;;;;2.47;2.10;;;2.10;99.90;;;;;;5446910;26;20009;-82
2024/04/18 01:21:44;;;;;;;4.38;2.60;;;2.10;99.90;;;;;;5433255;26;20433;-81
2024/04/18 01:24:14;;;;;;;2.75;2.50;;;2.10;99.90;;;;;;5443059;26;20050;-81
2024/04/18 01:26:40;;;;;;;3.05;2.72;;;2.10;99.90;;;;;;5446027;26;20009;-81
2024/04/18 01:29:05;;;;;;;4.35;2.92;;;2.10;99.90;;;;;;5436421;26;20006;-81
2024/04/18 01:31:31;;;;;;;3.63;2.65;;;2.00;99.90;;;;;;5471175;26;20001;-81
2024/04/18 01:33:57;;;;;;;3.00;2.72;;;2.00;99.90;;;;;;5470814;26;20002;-81
2024/04/18 01:36:24;;;;;;;3.15;2.13;;;2.00;99.90;;;;;;5438466;26;20010;-81
2024/04/18 01:38:49;;;;;;;4.72;2.80;;;2.00;99.90;;;;;;5471922;26;20009;-82
2024/04/18 01:41:16;;;;;;;3.75;2.70;;;2.00;99.90;;;;;;5474825;26;19998;-81
2024/04/18 01:43:42;;;;;;;3.00;2.70;;;2.00;99.90;;;;;;5438987;26;20334;-81
2024/04/18 01:46:07;;;;;;;3.80;3.13;;;1.90;99.90;;;;;;5447124;26;19995;-82
2024/04/18 01:48:33;;;;;;;3.20;2.80;;;1.90;99.90;;;;;;5444205;26;20009;-82
2024/04/18 01:50:58;;;;;;;3.90;2.70;;;1.90;99.90;;;;;;5475257;26;20014;-82
2024/04/18 01:53:24;;;;;;;3.45;3.03;;;1.90;99.90;;;;;;5474332;26;20074;-81
2024/04/18 01:55:50;;;;;;;4.63;2.90;;;1.90;99.90;;;;;;5441808;26;20009;-81
2024/04/18 01:58:15;;;;;;;3.03;2.72;;;1.80;99.90;;;;;;5468977;26;20383;-81
2024/04/18 02:00:44;;;;;;;3.35;2.47;;;1.80;99.90;;;;;;5441547;26;19994;-81
2024/04/18 02:03:09;;;;;;;4.13;3.28;;;1.80;99.90;;;;;;5476244;26;20007;-82
2024/04/18 02:05:35;;;;;;;3.47;2.88;;;1.80;99.90;;;;;;5469762;26;20072;-81
2024/04/18 02:08:01;;;;;;;3.42;3.00;;;1.80;99.90;;;;;;5471341;26;19990;-81
2024/04/18 02:10:27;;;;;;;3.67;3.00;;;1.80;99.90;;;;;;5445900;26;20013;-81
2024/04/18 02:12:56;;;;;;;5.80;3.10;;;1.70;99.90;;;;;;5449667;26;20009;-82
2024/04/18 02:15:25;;;;;;;4.30;3.10;;;1.70;99.90;;;;;;5447954;26;20012;-80
2024/04/18 02:17:51;;;;;;;4.97;3.00;;;1.70;99.90;;;;;;5476506;26;20636;-81
2024/04/18 02:20:19;;;;;;;4.18;3.40;;;1.70;99.90;;;;;;5477064;26;20351;-81
2024/04/18 02:22:45;;;;;;;3.90;3.20;;;1.60;99.90;;;;;;5476537;26;20026;-81
2024/04/18 02:25:11;;;;;;;6.18;3.88;;;1.60;99.90;;;;;;5446826;26;20006;-81
2024/04/18 02:27:38;;;;;;;4.75;3.40;;;1.60;99.90;;;;;;5475921;26;20021;-80
2024/04/18 02:30:05;;;;;;;3.90;3.28;;;1.50;99.90;;;;;;5444390;26;20002;-82
2024/04/18 02:32:31;;;;;;;6.28;3.40;;;1.50;99.90;;;;;;5439674;26;19994;-81
2024/04/18 02:34:57;;;;;;;3.42;2.85;;;1.40;99.90;;;;;;5445080;26;20011;-81
2024/04/18 02:37:22;;;;;;;4.53;3.40;;;1.50;99.90;;;;;;5443776;26;20078;-81
2024/04/18 02:39:48;;;;;;;4.05;3.08;;;1.50;99.90;;;;;;5449500;26;20305;-81
2024/04/18 02:42:16;;;;;;;4.70;3.75;;;1.40;99.90;;;;;;5481017;26;19994;-81
2024/04/18 02:44:42;;;;;;;4.40;3.55;;;1.40;99.90;;;;;;5442621;26;20011;-81
2024/04/18 02:47:08;;;;;;;5.80;3.35;;;1.40;99.90;;;;;;5478131;26;20002;-82
2024/04/18 02:49:34;;;;;;;5.03;3.38;;;1.30;99.90;;;;;;5474600;26;20010;-81
2024/04/18 02:52:00;;;;;;;7.47;4.38;;;1.30;99.90;;;;;;5443571;26;19998;-80
2024/04/18 02:54:25;;;;;;;6.30;3.90;;;1.30;99.90;;;;;;5475433;26;20009;-81
2024/04/18 02:56:51;;;;;;;5.95;3.85;;;1.30;99.90;;;;;;5476469;26;20007;-81
2024/04/18 02:59:16;;;;;;;4.50;4.10;;;1.30;99.90;;;;;;5473229;26;20009;-82
2024/04/18 03:01:42;;;;;;;6.72;5.07;;;1.30;99.90;;;;;;5473780;26;20013;-80
2024/04/18 03:04:08;;;;;;;9.05;4.80;;;1.30;99.90;;;;;;5445598;26;19995;-81
2024/04/18 03:06:33;;;;;;;6.90;4.38;;;1.30;99.90;;;;;;5468375;26;20037;-81
2024/04/18 03:08:59;;;;;;;7.50;4.80;;;1.30;99.90;;;;;;5472073;26;19994;-81
2024/04/18 03:11:24;;;;;;;7.57;5.10;;;1.20;99.90;;;;;;5442216;26;19998;-81
2024/04/18 03:13:50;;;;;;;6.85;5.40;;;1.30;99.90;;;;;;5440214;26;20075;-81
2024/04/18 03:16:15;;;;;;;6.75;5.50;;;1.20;99.90;;;;;;5472976;26;19994;-81
2024/04/18 03:18:42;;;;;;;7.65;5.10;;;1.20;99.90;;;;;;5438578;26;20006;-81
2024/04/18 03:21:08;;;;;;;8.43;6.10;;;1.10;99.90;;;;;;5472116;26;20062;-81
2024/04/18 03:23:33;;;;;;;6.45;5.25;;;1.10;99.90;;;;;;5468686;26;20013;-80
2024/04/18 03:25:59;;;;;;;7.80;5.78;;;1.10;99.90;;;;;;5468590;26;20378;-81
2024/04/18 03:28:24;;;;;;;6.57;5.13;;;1.20;99.90;;;;;;5466739;26;20002;-81
2024/04/18 03:30:50;;;;;;;6.20;5.30;;;1.20;99.90;;;;;;5442906;26;20009;-82
2024/04/18 03:33:16;;;;;;;8.93;5.25;;;1.20;99.90;;;;;;5467390;26;20009;-81
2024/04/18 03:35:41;;;;;;;6.22;4.97;;;1.20;99.90;;;;;;5478676;26;20454;-82
2024/04/18 03:38:07;;;;;;;5.90;5.28;;;1.10;99.90;;;;;;5440021;26;19994;-81
2024/04/18 03:40:33;;;;;;;8.15;5.78;;;1.10;99.90;;;;;;5441995;26;20536;-81
2024/04/18 03:42:58;;;;;;;6.47;5.00;;;1.10;99.90;;;;;;5446720;26;20413;-81
2024/04/18 03:45:24;;;;;;;9.10;5.03;;;1.10;99.90;;;;;;5465228;26;20503;-80
2024/04/18 03:47:53;;;;;;;6.32;5.57;;;1.10;99.90;;;;;;5473149;26;20034;-81
2024/04/18 03:50:19;;;;;;;7.90;6.07;;;1.00;99.90;;;;;;5472710;26;19994;-80
2024/04/18 03:52:45;;;;;;;7.68;5.93;;;1.10;99.90;;;;;;5466212;26;19995;-81
2024/04/18 03:55:10;;;;;;;9.00;5.72;;;1.00;99.90;;;;;;5468865;26;20540;-82
2024/04/18 03:57:36;;;;;;;8.75;6.60;;;1.00;99.90;;;;;;5443000;26;20719;-81
2024/04/18 04:00:02;;;;;;;8.80;6.28;;;1.00;99.90;;;;;;5472914;26;20010;-82
2024/04/18 04:02:29;;;;;;;8.55;6.82;;;1.00;99.90;;;;;;5474851;26;20022;-81
2024/04/18 04:04:55;;;;;;;9.30;6.80;;;1.00;99.90;;;;;;5437792;26;20013;-80
2024/04/18 04:07:21;;;;;;;10.73;7.53;;;1.10;99.90;;;;;;5471511;26;19998;-82
2024/04/18 04:09:46;;;;;;;9.88;6.93;;;1.00;99.90;;;;;;5465335;26;20012;-82
2024/04/18 04:12:12;;;;;;;10.68;7.35;;;1.00;99.90;;;;;;5447183;26;20006;-81
2024/04/18 04:14:37;;;;;;;10.60;7.47;;;0.90;99.90;;;;;;5454029;26;20366;-81
2024/04/18 04:17:03;;;;;;;10.18;7.35;;;0.90;99.90;;;;;;5470695;26;20005;-81
2024/04/18 04:19:28;;;;;;;9.70;7.10;;;0.90;99.90;;;;;;5440165;26;20013;-82
2024/04/18 04:21:54;;;;;;;8.60;6.85;;;0.90;99.90;;;;;;5472366;26;20072;-81
2024/04/18 04:24:19;;;;;;;10.25;7.13;;;0.80;99.90;;;;;;5476967;26;19999;-81
2024/04/18 04:26:45;;;;;;;10.02;5.78;;;0.80;99.90;;;;;;5473144;26;20002;-81
2024/04/18 04:29:11;;;;;;;8.30;6.00;;;0.80;99.90;;;;;;5445764;26;20358;-81
2024/04/18 04:31:36;;;;;;;9.70;5.95;;;0.70;99.90;;;;;;5474979;26;19997;-81
2024/04/18 04:34:02;;;;;;;9.90;6.50;;;0.70;99.90;;;;;;5476349;26;20009;-81
2024/04/18 04:36:28;;;;;;;7.43;5.68;;;0.70;99.90;;;;;;5473548;26;20449;-82
2024/04/18 04:38:53;;;;;;;8.55;5.95;;;0.60;99.90;;;;;;5474249;26;19990;-81
2024/04/18 04:41:19;;;;;;;9.85;5.80;;;0.70;99.90;;;;;;5437053;26;20039;-81
2024/04/18 04:43:44;;;;;;;6.22;5.05;;;0.70;99.90;;;;;;5477080;26;20001;-81
2024/04/18 04:46:10;;;;;;;8.23;6.05;;;0.70;99.90;;;;;;5436533;26;20470;-82
2024/04/18 04:48:36;;;;;;;7.55;5.75;;;0.70;99.90;;;;;;5435805;26;20022;-81
2024/04/18 04:51:02;;;;;;;8.57;6.40;;;0.70;99.90;;;;;;5442059;26;19998;-81
2024/04/18 04:53:28;;;;;;;7.57;5.82;;;0.70;99.90;;;;;;5442176;26;20013;-81
2024/04/18 04:55:54;;;;;;;7.88;5.70;;;0.70;99.90;;;;;;5443973;26;20540;-82
2024/04/18 04:58:21;;;;;;;8.63;5.63;;;0.70;99.90;;;;;;5467030;26;20016;-80
2024/04/18 05:00:46;;;;;;;8.80;5.60;;;0.70;99.90;;;;;;5442010;26;20011;-81
2024/04/18 05:03:12;;;;;;;9.25;6.07;;;0.70;99.90;;;;;;5468549;26;20773;-81
2024/04/18 05:05:42;;;;;;;8.80;5.80;;;0.70;99.90;;;;;;5465560;26;20005;-81
2024/04/18 05:08:07;;;;;;;10.77;6.18;;;0.70;99.90;;;;;;5477679;26;19994;-81
2024/04/18 05:10:37;;;;;;;9.93;7.00;;;0.80;99.90;;;;;;5433095;26;20074;-81
2024/04/18 05:13:03;;;;;;;9.48;6.35;;;0.80;99.90;;;;;;5469382;26;19990;-79
2024/04/18 05:15:29;;;;;;;7.90;6.30;;;0.80;99.90;;;;;;5435421;26;20646;-82
2024/04/18 05:17:54;;;;;;;9.18;6.78;;;0.80;99.90;;;;;;5469000;26;20313;-81
2024/04/18 05:20:20;;;;;;;8.25;5.97;;;0.90;99.90;;;;;;5445623;26;20010;-81
2024/04/18 05:22:45;;;;;;;11.43;6.72;;;0.90;99.90;;;;;;5439688;26;20013;-82
2024/04/18 05:25:11;;;;;;;9.32;6.63;;;0.90;99.90;;;;;;5472462;26;19999;-81
2024/04/18 05:27:43;;;;;;;10.63;7.18;;;0.90;99.90;;;;;;5479071;26;20002;-82
2024/04/18 05:32:53;;;;;;;9.07;6.93;;;1.00;99.90;;;;;;5472335;26;20066;-82
2024/04/18 05:35:19;;;;;;;7.72;6.57;;;1.00;99.90;;;;;;5480953;26;19998;-81
2024/04/18 05:37:44;;;;;;;10.70;6.03;;;1.00;99.90;;;;;;5445262;26;20006;-81
2024/04/18 05:40:10;;;;;;;7.50;6.25;;;1.00;99.90;;;;;;5450929;26;19994;-82
2024/04/18 05:42:35;;;;;;;6.55;5.78;;;1.00;99.90;;;;;;5475189;26;20038;-81
2024/04/18 05:45:01;;;;;;;8.20;6.40;;;1.10;99.90;;;;;;5480844;26;20096;-81
2024/04/18 05:47:27;;;;;;;9.98;6.55;;;1.10;99.90;;;;;;5476340;26;19990;-82
2024/04/18 05:49:54;;;;;;;8.55;6.45;;;1.20;99.90;;;;;;5439899;26;20014;-82
2024/04/18 05:52:20;;;;;;;10.85;7.55;;;1.30;99.90;;;;;;5450380;26;20074;-81
2024/04/18 05:54:45;;;;;;;10.85;7.18;;;1.30;99.90;;;;;;5451835;26;20017;-81
2024/04/18 05:57:11;;;;;;;9.13;7.38;;;1.40;99.90;;;;;;5474332;26;20009;-82
2024/04/18 05:59:36;;;;;;;10.45;8.18;;;1.40;99.90;;;;;;5480926;26;20006;-82
2024/04/18 06:02:02;;;;;;;9.88;7.03;;;1.50;99.90;;;;;;5484666;26;19990;-81
2024/04/18 06:04:27;;;;;;;9.68;7.43;;;1.50;99.90;;;;;;5450906;26;20362;-82
2024/04/18 06:06:53;;;;;;;11.30;7.20;;;1.60;99.90;;;;;;5480971;26;20005;-82
2024/04/18 06:09:19;;;;;;;12.35;8.75;;;1.70;99.90;;;;;;5478241;26;20038;-82
2024/04/18 06:11:45;;;;;;;9.25;7.50;;;1.80;99.90;;;;;;5473958;26;19995;-82
2024/04/18 06:14:11;;;;;;;12.38;8.70;;;1.90;99.90;;;;;;5480143;26;20078;-83
2024/04/18 06:16:37;;;;;;;15.93;11.85;;;2.10;99.90;;;;;;5446889;26;20010;-82
2024/04/18 06:19:03;;;;;;;17.92;11.52;;;2.20;99.90;;;;;;5448071;26;20067;-81
2024/04/18 06:21:28;;;;;;;15.93;11.73;;;2.30;99.90;;;;;;5473951;26;20021;-82
2024/04/18 06:23:54;;;;;;;15.20;11.50;;;2.40;99.90;;;;;;5472963;26;19990;-82
2024/04/18 06:26:21;;;;;;;12.80;9.65;;;2.40;99.90;;;;;;5448440;26;20513;-82
2024/04/18 06:28:47;;;;;;;14.82;10.15;;;2.60;99.90;;;;;;5450610;26;20003;-82
2024/04/18 06:31:13;;;;;;;14.65;9.63;;;2.60;99.90;;;;;;5475500;26;20027;-82
2024/04/18 06:33:38;;;;;;;12.27;9.13;;;2.70;99.90;;;;;;5449794;26;19991;-81
2024/04/18 06:36:04;;;;;;;12.85;9.02;;;2.80;99.90;;;;;;5473007;26;20005;-81
2024/04/18 06:38:30;;;;;;;13.98;9.38;;;2.90;99.90;;;;;;5477136;26;20002;-82
2024/04/18 06:40:55;;;;;;;13.63;9.40;;;3.10;99.90;;;;;;5469305;26;20071;-81
2024/04/18 06:43:21;;;;;;;13.30;9.35;;;3.20;99.90;;;;;;5472551;26;19998;-81
2024/04/18 06:45:46;;;;;;;14.85;10.88;;;3.30;99.90;;;;;;5476168;26;20087;-82
2024/04/18 06:48:12;;;;;;;16.02;9.75;;;3.50;99.90;;;;;;5445477;26;20087;-82
2024/04/18 06:50:37;;;;;;;13.93;10.27;;;3.70;99.90;;;;;;5450462;26;19995;-82
2024/04/18 06:53:04;;;;;;;12.70;9.30;;;3.90;99.90;;;;;;5477790;26;19998;-79
2024/04/18 06:55:29;;;;;;;14.07;10.35;;;4.10;99.90;;;;;;5475098;26;19994;-80
2024/04/18 06:57:55;;;;;;;11.18;9.80;;;4.40;99.90;;;;;;5444028;26;20479;-82
2024/04/18 07:00:21;;;;;;;13.60;9.32;;;4.60;99.90;;;;;;5480894;26;19994;-81
2024/04/18 07:02:47;;;;;;;16.48;10.73;;;4.80;99.90;;;;;;5474137;26;20039;-81
2024/04/18 07:05:12;;;;;;;13.25;10.25;;;5.00;99.90;;;;;;5472120;26;20430;-82
2024/04/18 07:07:38;;;;;;;12.80;9.95;;;5.20;99.90;;;;;;5474420;26;20057;-82
2024/04/18 07:10:05;;;;;;;16.55;10.52;;;5.50;99.90;;;;;;5473643;26;19990;-83
2024/04/18 07:12:30;;;;;;;13.90;9.43;;;5.70;99.90;;;;;;5475383;26;20001;-82
2024/04/18 07:14:56;;;;;;;10.98;8.20;;;6.00;99.90;;;;;;5477437;26;20002;-82
2024/04/18 07:17:21;;;;;;;9.77;7.50;;;6.20;99.90;;;;;;5478132;26;20006;-80
2024/04/18 07:19:47;;;;;;;7.40;5.50;;;6.50;99.90;;;;;;5470539;26;19991;-82
2024/04/18 07:22:12;;;;;;;10.10;5.72;;;6.80;99.90;;;;;;5447840;26;20070;-84
2024/04/18 07:24:38;;;;;;;10.25;7.35;;;7.00;99.90;;;;;;5478521;26;20016;-82
2024/04/18 07:27:04;;;;;;;5.72;4.38;;;7.20;99.90;;;;;;5478796;26;20009;-82
2024/04/18 07:29:29;;;;;;;5.15;4.53;;;7.50;99.90;;;;;;5446510;26;20066;-84
2024/04/18 07:31:55;;;;;;;6.47;4.32;;;7.70;99.90;;;;;;5468240;26;20006;-82
2024/04/18 07:34:20;;;;;;;6.75;3.72;;;7.90;99.90;;;;;;5479813;26;19994;-82
2024/04/18 07:36:47;;;;;;;5.15;3.85;;;8.10;99.90;;;;;;5473305;26;20010;-83
2024/04/18 07:39:13;;;;;;;4.43;3.67;;;8.30;99.90;;;;;;5450849;26;20580;-84
2024/04/18 07:41:38;;;;;;;4.72;3.40;;;8.40;99.90;;;;;;5478354;26;19995;-82
2024/04/18 07:44:06;;;;;;;5.40;3.97;;;8.60;99.90;;;;;;5444807;26;20075;-82
2024/04/18 07:46:32;;;;;;;5.07;3.30;;;8.80;99.90;;;;;;5477843;26;19998;-84
2024/04/18 07:48:58;;;;;;;6.97;5.38;;;9.00;99.90;;;;;;5447740;26;20639;-82
2024/04/18 07:51:23;;;;;;;4.63;3.20;;;9.20;99.90;;;;;;5445089;26;19998;-83
2024/04/18 07:53:49;;;;;;;4.05;3.55;;;9.40;99.90;;;;;;5478609;26;19998;-82
2024/04/18 07:56:15;;;;;;;3.42;2.80;;;9.50;99.90;;;;;;5469396;26;19994;-82
2024/04/18 07:58:41;;;;;;;4.88;2.95;;;9.70;99.90;;;;;;5444491;26;20016;-83
2024/04/18 08:01:11;;;;;;;4.38;2.65;;;9.80;99.90;;;;;;5466768;26;19997;-82
2024/04/18 08:03:38;;;;;;;3.10;2.33;;;9.80;99.90;;;;;;5448757;26;20002;-82
2024/04/18 08:06:04;;;;;;;4.05;2.70;;;9.90;99.90;;;;;;5474549;26;19999;-82
2024/04/18 08:08:30;;;;;;;4.90;2.85;;;10.10;99.90;;;;;;5475817;26;20045;-82
2024/04/18 08:10:56;;;;;;;4.45;3.53;;;10.30;99.90;;;;;;5472924;26;19994;-82
2024/04/18 08:13:21;;;;;;;7.43;3.20;;;10.40;99.90;;;;;;5470496;26;20002;-82
2024/04/18 08:15:47;;;;;;;4.88;3.53;;;10.60;99.90;;;;;;5447141;26;20016;-83
2024/04/18 08:18:16;;;;;;;6.68;3.90;;;10.70;99.90;;;;;;5471402;26;20017;-83
2024/04/18 08:20:42;;;;;;;5.53;4.72;;;10.70;99.90;;;;;;5471903;26;20024;-83
2024/04/18 08:23:08;;;;;;;7.20;5.05;;;10.90;99.90;;;;;;5445577;26;20014;-83
2024/04/18 08:25:33;;;;;;;7.20;5.10;;;11.10;99.90;;;;;;5462727;26;20002;-82
2024/04/18 08:27:59;;;;;;;5.80;4.20;;;11.20;99.90;;;;;;5449342;26;20010;-83
2024/04/18 08:30:24;;;;;;;3.42;3.10;;;11.10;99.90;;;;;;5472543;26;20013;-82
2024/04/18 08:32:50;;;;;;;3.72;3.30;;;10.90;99.90;;;;;;5471807;26;19998;-82
2024/04/18 08:35:18;;;;;;;4.72;2.95;;;10.90;99.90;;;;;;5477973;26;20453;-81
2024/04/18 08:37:44;;;;;;;6.18;3.53;;;11.20;99.90;;;;;;5437998;26;20003;-82
2024/04/18 08:40:10;;;;;;;3.35;2.95;;;11.40;99.90;;;;;;5444739;26;20017;-83
2024/04/18 08:42:36;;;;;;;5.28;3.08;;;11.60;99.90;;;;;;5471716;26;20074;-82
2024/04/18 08:45:01;;;;;;;5.88;3.03;;;11.80;99.90;;;;;;5470987;26;20339;-83
2024/04/18 08:47:31;;;;;;;2.85;2.05;;;11.90;99.90;;;;;;5480950;26;20341;-83
2024/04/18 08:49:57;;;;;;;5.20;2.55;;;11.70;99.90;;;;;;5475635;26;19998;-82
2024/04/18 08:52:23;;;;;;;5.10;2.20;;;11.70;99.90;;;;;;5471654;26;20075;-82
2024/04/18 08:54:48;;;;;;;4.80;2.45;;;11.70;99.90;;;;;;5479960;26;19998;-83
2024/04/18 08:57:21;;;;;;;4.22;2.13;;;11.50;99.90;;;;;;5479762;26;20009;-82
2024/04/18 08:59:56;;;;;;;2.10;1.90;;;11.60;99.90;;;;;;5475061;26;19994;-82
2024/04/18 09:02:22;;;;;;;5.60;2.20;;;11.30;99.90;;;;;;5470147;26;20208;-83
2024/04/18 09:04:48;;;;;;;1.70;1.60;;;11.10;99.90;;;;;;5444582;26;20739;-82
2024/04/18 09:07:14;;;;;;;2.35;1.75;;;11.00;99.90;;;;;;5472779;26;20029;-82
2024/04/18 09:09:40;;;;;;;3.15;2.38;;;11.30;99.90;;;;;;5471170;26;20002;-82
2024/04/18 09:12:06;;;;;;;2.85;1.90;;;11.50;99.90;;;;;;5465271;26;20704;-82
2024/04/18 09:14:32;;;;;;;2.67;2.10;;;11.20;99.90;;;;;;5449537;26;20009;-82
2024/04/18 09:16:57;;;;;;;1.45;1.15;;;11.00;99.90;;;;;;5470189;26;20052;-82
2024/04/18 09:19:24;;;;;;;2.42;1.65;;;11.00;99.90;;;;;;5476084;26;20652;-82
2024/04/18 09:21:49;;;;;;;2.38;1.60;;;11.20;99.90;;;;;;5438956;26;20547;-82
2024/04/18 09:24:15;;;;;;;4.10;2.03;;;11.30;99.90;;;;;;5470420;26;19994;-82
2024/04/18 09:26:41;;;;;;;3.05;1.92;;;11.50;99.90;;;;;;5480650;26;20415;-83
2024/04/18 09:29:06;;;;;;;1.80;1.52;;;11.60;99.90;;;;;;5468142;26;20053;-83
2024/04/18 09:31:32;;;;;;;2.55;1.40;;;11.70;99.90;;;;;;5481873;26;20012;-83
2024/04/18 09:33:58;;;;;;;2.40;2.20;;;11.90;99.90;;;;;;5474667;26;20005;-82
2024/04/18 09:36:24;;;;;;;2.17;1.90;;;12.10;99.90;;;;;;5483200;26;20026;-82
2024/04/18 09:38:50;;;;;;;3.20;2.67;;;12.10;99.90;;;;;;5482249;26;20010;-83
2024/04/18 09:41:23;;;;;;;1.88;1.40;;;12.10;99.90;;;;;;5474339;26;20075;-83
2024/04/18 09:44:14;;;;;;;3.80;1.40;;;11.90;99.90;;;;;;5474021;26;20080;-83
2024/04/18 09:46:45;;;;;;;2.97;2.13;;;11.90;99.90;;;;;;5442849;26;20006;-83
2024/04/18 09:49:11;;;;;;;7.68;4.35;;;12.00;99.90;;;;;;5452886;26;20009;-83
2024/04/18 09:51:39;;;;;;;6.80;2.58;;;12.10;99.90;;;;;;5442177;26;20006;-82
2024/04/18 09:54:05;;;;;;;4.70;2.83;;;12.30;99.90;;;;;;5437535;26;20014;-84
2024/04/18 09:56:33;;;;;;;4.35;3.05;;;12.10;99.90;;;;;;5477408;26;20034;-84
2024/04/18 09:59:00;;;;;;;6.30;3.20;;;11.90;99.90;;;;;;5479445;26;20065;-82
2024/04/18 10:01:25;;;;;;;4.00;2.20;;;11.80;99.90;;;;;;5469137;26;20006;-83
2024/04/18 10:03:51;;;;;;;2.00;1.60;;;11.80;99.90;;;;;;5451678;26;20012;-83
2024/04/18 10:06:20;;;;;;;2.50;1.65;;;11.70;99.90;;;;;;5472852;26;20026;-82
2024/04/18 10:08:51;;;;;;;3.08;1.90;;;11.90;99.90;;;;;;5464565;26;19998;-83
2024/04/18 10:11:21;;;;;;;2.30;1.88;;;12.00;99.90;;;;;;5473988;26;19995;-83
2024/04/18 10:13:49;;;;;;;2.97;1.75;;;12.10;99.90;;;;;;5476171;26;19990;-83
2024/04/18 10:16:15;;;;;;;1.67;1.55;;;12.20;99.90;;;;;;5478660;26;20002;-82
2024/04/18 10:18:41;;;;;;;4.00;2.20;;;12.20;99.90;;;;;;5472966;26;20077;-83
2024/04/18 10:21:11;;;;;;;1.65;1.52;;;12.10;99.90;;;;;;5479096;26;20009;-83
2024/04/18 10:23:44;;;;;;;5.80;2.47;;;12.20;99.90;;;;;;5453871;26;19994;-82
2024/04/18 10:26:13;;;;;;;3.85;2.58;;;12.20;99.90;;;;;;5446232;26;20003;-83
2024/04/18 10:28:39;;;;;;;3.80;3.05;;;12.40;99.90;;;;;;5475816;26;20026;-83
2024/04/18 10:31:05;;;;;;;4.68;2.53;;;12.40;99.90;;;;;;5477670;26;20013;-82
2024/04/18 10:33:33;;;;;;;3.58;2.53;;;12.30;99.90;;;;;;5450181;26;20071;-84
2024/04/18 10:35:59;;;;;;;2.22;2.03;;;12.30;99.90;;;;;;5475868;26;20014;-82
2024/04/18 10:38:26;;;;;;;2.63;2.03;;;12.10;99.90;;;;;;5481391;26;19998;-82
2024/04/18 10:41:05;;;;;;;1.70;1.60;;;12.10;99.90;;;;;;5442198;26;19995;-83
2024/04/18 10:43:32;;;;;;;2.00;1.60;;;12.00;99.90;;;;;;5448990;26;20008;-84
2024/04/18 10:46:00;;;;;;;3.20;1.52;;;11.90;99.90;;;;;;5474800;26;20074;-82
2024/04/18 10:48:26;;;;;;;3.13;1.45;;;11.90;99.90;;;;;;5449697;26;20003;-82
2024/04/18 10:50:52;;;;;;;2.47;1.20;;;11.80;99.90;;;;;;5450575;26;20002;-82
2024/04/18 10:53:19;;;;;;;3.35;1.42;;;11.70;99.90;;;;;;5447125;26;20008;-81
2024/04/18 10:55:45;;;;;;;2.75;1.50;;;11.60;99.90;;;;;;5441107;26;20013;-82
2024/04/18 10:58:15;;;;;;;2.08;1.35;;;11.70;99.90;;;;;;5477366;26;20010;-84
2024/04/18 11:00:44;;;;;;;2.47;1.30;;;11.70;99.90;;;;;;5452448;26;19994;-83
2024/04/18 11:03:10;;;;;;;3.60;1.20;;;11.60;99.90;;;;;;5478671;26;20013;-82
2024/04/18 11:05:37;;;;;;;2.42;1.48;;;11.50;99.90;;;;;;5449349;26;20002;-82
2024/04/18 11:08:11;;;;;;;3.47;1.25;;;11.50;99.90;;;;;;5482944;26;20027;-82
2024/04/18 11:10:39;;;;;;;5.82;1.58;;;11.60;99.90;;;;;;5474187;26;19994;-83
2024/04/18 11:13:05;;;;;;;4.50;1.45;;;11.50;99.90;;;;;;5451883;26;20002;-81
2024/04/18 11:15:31;;;;;;;4.85;1.30;;;11.60;99.90;;;;;;5451210;26;20002;-83
2024/04/18 11:18:01;;;;;;;4.53;1.23;;;11.60;99.90;;;;;;5449796;26;20013;-80
2024/04/18 11:20:29;;;;;;;1.73;1.40;;;11.60;99.90;;;;;;5471630;26;19998;-83
2024/04/18 11:22:54;;;;;;;0.93;0.82;;;11.60;99.90;;;;;;5478126;26;20083;-83
2024/04/18 11:25:20;;;;;;;2.42;1.10;;;11.70;99.90;;;;;;5441345;26;19991;-82
2024/04/18 11:27:46;;;;;;;2.72;0.93;;;11.60;99.90;;;;;;5480681;26;19998;-81
2024/04/18 11:30:17;;;;;;;0.95;0.75;;;11.50;99.90;;;;;;5450604;26;20002;-83
2024/04/18 11:32:42;;;;;;;1.92;1.02;;;11.40;99.90;;;;;;5471279;26;20013;-82
2024/04/18 11:35:09;;;;;;;2.28;0.70;;;11.40;99.90;;;;;;5479753;26;20641;-83
2024/04/18 11:37:38;;;;;;;2.67;0.68;;;11.50;99.90;;;;;;5478421;26;19994;-83
2024/04/18 11:40:09;;;;;;;2.35;0.93;;;11.60;99.90;;;;;;5453183;26;20002;-82
2024/04/18 11:42:35;;;;;;;2.78;0.60;;;11.60;99.90;;;;;;5479630;26;20006;-83
2024/04/18 11:45:00;;;;;;;1.85;0.80;;;11.60;99.90;;;;;;5474510;26;19998;-81
2024/04/18 11:47:26;;;;;;;1.35;0.60;;;11.60;99.90;;;;;;5472647;26;20008;-81
2024/04/18 11:49:51;;;;;;;2.40;0.80;;;11.80;99.90;;;;;;5476882;26;20006;-83
2024/04/18 11:52:17;;;;;;;1.20;0.65;;;11.90;99.90;;;;;;5471670;26;20522;-84
2024/04/18 11:54:43;;;;;;;0.98;0.60;;;11.90;99.90;;;;;;5449301;26;19994;-83
2024/04/18 11:57:08;;;;;;;2.53;1.25;;;12.00;99.90;;;;;;5470332;26;19994;-83
2024/04/18 11:59:37;;;;;;;0.95;0.50;;;12.00;99.90;;;;;;5472142;26;20344;-82
2024/04/18 12:02:05;;;;;;;2.25;0.70;;;12.10;99.90;;;;;;5473218;26;20330;-82
2024/04/18 12:04:31;;;;;;;1.33;0.85;;;12.10;99.90;;;;;;5470837;26;19995;-83
2024/04/18 12:06:57;;;;;;;2.00;0.52;;;12.00;99.90;;;;;;5469948;26;20026;-82
2024/04/18 12:09:22;;;;;;;2.70;0.77;;;11.90;99.90;;;;;;5476817;26;20131;-82
2024/04/18 12:11:48;;;;;;;2.47;0.90;;;11.70;99.90;;;;;;5468853;26;20014;-83
2024/04/18 12:14:13;;;;;;;1.73;1.10;;;11.50;99.90;;;;;;5448541;26;19994;-82
2024/04/18 12:16:39;;;;;;;5.07;0.98;;;11.40;99.90;;;;;;5478024;26;20002;-82
2024/04/18 12:19:04;;;;;;;1.92;0.70;;;11.40;99.90;;;;;;5444871;26;20010;-84
2024/04/18 12:21:30;;;;;;;4.05;0.93;;;11.30;99.90;;;;;;5480142;26;19998;-82
2024/04/18 12:23:55;;;;;;;6.22;1.33;;;11.30;99.90;;;;;;5475440;26;19998;-81
2024/04/18 12:26:21;;;;;;;1.90;1.00;;;11.40;99.90;;;;;;5475899;26;19998;-82
2024/04/18 12:28:46;;;;;;;1.77;0.98;;;11.50;99.90;;;;;;5477853;26;20009;-82
2024/04/18 12:31:12;;;;;;;2.40;0.70;;;11.50;99.90;;;;;;5474521;26;20002;-83
2024/04/18 12:33:38;;;;;;;0.55;0.52;;;11.60;99.90;;;;;;5479671;26;20091;-83
2024/04/18 12:36:04;;;;;;;1.83;0.57;;;11.50;99.90;;;;;;5478154;26;20082;-82
2024/04/18 12:38:31;;;;;;;3.20;0.90;;;11.50;99.90;;;;;;5471998;26;20300;-82
2024/04/18 12:40:57;;;;;;;1.08;0.50;;;11.60;99.90;;;;;;5481246;26;20415;-80
2024/04/18 12:43:23;;;;;;;2.65;1.15;;;11.60;99.90;;;;;;5479487;26;20002;-81
2024/04/18 12:45:48;;;;;;;1.65;0.80;;;11.60;99.90;;;;;;5445878;26;20013;-82
2024/04/18 12:48:14;;;;;;;1.83;0.75;;;11.60;99.90;;;;;;5479763;26;20004;-82